sensor_id;sensor_type;location;lat;lon;timestamp;P1;durP1;ratioP1;P2;durP2;ratioP2
78143;SDS011;67394;52.522;13.622;2023-08-07T00:01:48;3.63;;;1.73;;
78143;SDS011;67394;52.522;13.622;2023-08-07T00:04:14;3.83;;;1.52;;
78143;SDS011;67394;52.522;13.622;2023-08-07T00:06:41;3.28;;;1.60;;
78143;SDS011;67394;52.522;13.622;2023-08-07T00:09:07;3.30;;;1.85;;
78143;SDS011;67394;52.522;13.622;2023-08-07T00:11:34;1.98;;;1.48;;
78143;SDS011;67394;52.522;13.622;2023-08-07T00:14:01;3.03;;;1.88;;
78143;SDS011;67394;52.522;13.622;2023-08-07T00:16:27;4.55;;;1.77;;
78143;SDS011;67394;52.522;13.622;2023-08-07T00:18:54;3.13;;;1.80;;
78143;SDS011;67394;52.522;13.622;2023-08-07T00:21:24;3.65;;;1.83;;
78143;SDS011;67394;52.522;13.622;2023-08-07T00:23:50;3.25;;;1.77;;
78143;SDS011;67394;52.522;13.622;2023-08-07T00:26:17;3.38;;;1.98;;
78143;SDS011;67394;52.522;13.622;2023-08-07T00:28:43;4.82;;;1.95;;
78143;SDS011;67394;52.522;13.622;2023-08-07T00:31:10;3.33;;;1.80;;
78143;SDS011;67394;52.522;13.622;2023-08-07T00:33:36;3.00;;;1.90;;
78143;SDS011;67394;52.522;13.622;2023-08-07T00:36:03;3.03;;;1.83;;
78143;SDS011;67394;52.522;13.622;2023-08-07T00:38:30;4.18;;;1.75;;
78143;SDS011;67394;52.522;13.622;2023-08-07T00:40:56;2.45;;;1.70;;
78143;SDS011;67394;52.522;13.622;2023-08-07T00:43:23;4.47;;;1.80;;
78143;SDS011;67394;52.522;13.622;2023-08-07T00:45:50;3.53;;;2.17;;
78143;SDS011;67394;52.522;13.622;2023-08-07T00:50:43;2.75;;;1.70;;
78143;SDS011;67394;52.522;13.622;2023-08-07T00:53:13;3.85;;;2.10;;
78143;SDS011;67394;52.522;13.622;2023-08-07T00:55:41;6.95;;;1.98;;
78143;SDS011;67394;52.522;13.622;2023-08-07T00:58:08;3.58;;;2.22;;
78143;SDS011;67394;52.522;13.622;2023-08-07T01:00:35;3.30;;;1.90;;
78143;SDS011;67394;52.522;13.622;2023-08-07T01:03:01;4.40;;;2.13;;
78143;SDS011;67394;52.522;13.622;2023-08-07T01:05:31;3.20;;;2.10;;
78143;SDS011;67394;52.522;13.622;2023-08-07T01:08:00;2.78;;;1.67;;
78143;SDS011;67394;52.522;13.622;2023-08-07T01:13:37;3.33;;;2.08;;
78143;SDS011;67394;52.522;13.622;2023-08-07T01:16:21;3.03;;;1.80;;
78143;SDS011;67394;52.522;13.622;2023-08-07T01:18:56;5.22;;;2.45;;
78143;SDS011;67394;52.522;13.622;2023-08-07T01:21:23;4.05;;;2.20;;
78143;SDS011;67394;52.522;13.622;2023-08-07T01:23:50;3.85;;;2.30;;
78143;SDS011;67394;52.522;13.622;2023-08-07T01:26:19;4.30;;;1.80;;
78143;SDS011;67394;52.522;13.622;2023-08-07T01:32:00;3.28;;;2.00;;
78143;SDS011;67394;52.522;13.622;2023-08-07T01:34:33;3.53;;;1.80;;
78143;SDS011;67394;52.522;13.622;2023-08-07T01:37:01;3.58;;;2.28;;
78143;SDS011;67394;52.522;13.622;2023-08-07T01:39:29;4.18;;;1.90;;
78143;SDS011;67394;52.522;13.622;2023-08-07T01:41:57;4.30;;;2.58;;
78143;SDS011;67394;52.522;13.622;2023-08-07T01:44:24;3.03;;;2.15;;
78143;SDS011;67394;52.522;13.622;2023-08-07T01:46:52;3.60;;;2.10;;
78143;SDS011;67394;52.522;13.622;2023-08-07T01:49:21;3.92;;;2.20;;
78143;SDS011;67394;52.522;13.622;2023-08-07T01:51:47;3.47;;;1.77;;
78143;SDS011;67394;52.522;13.622;2023-08-07T01:54:14;3.40;;;2.00;;
78143;SDS011;67394;52.522;13.622;2023-08-07T01:56:40;4.15;;;2.50;;
78143;SDS011;67394;52.522;13.622;2023-08-07T01:59:07;3.15;;;1.55;;
78143;SDS011;67394;52.522;13.622;2023-08-07T02:01:33;3.10;;;1.85;;
78143;SDS011;67394;52.522;13.622;2023-08-07T02:04:00;3.53;;;2.20;;
78143;SDS011;67394;52.522;13.622;2023-08-07T02:06:27;4.63;;;1.88;;
78143;SDS011;67394;52.522;13.622;2023-08-07T02:08:53;4.85;;;2.17;;
78143;SDS011;67394;52.522;13.622;2023-08-07T02:11:22;3.80;;;2.42;;
78143;SDS011;67394;52.522;13.622;2023-08-07T02:13:49;3.53;;;2.35;;
78143;SDS011;67394;52.522;13.622;2023-08-07T02:16:15;2.95;;;2.03;;
78143;SDS011;67394;52.522;13.622;2023-08-07T02:18:42;3.67;;;1.88;;
78143;SDS011;67394;52.522;13.622;2023-08-07T02:21:11;4.40;;;2.30;;
78143;SDS011;67394;52.522;13.622;2023-08-07T02:23:40;4.43;;;2.20;;
78143;SDS011;67394;52.522;13.622;2023-08-07T02:26:07;4.63;;;2.40;;
78143;SDS011;67394;52.522;13.622;2023-08-07T02:28:33;3.03;;;2.10;;
78143;SDS011;67394;52.522;13.622;2023-08-07T02:31:00;5.68;;;2.30;;
78143;SDS011;67394;52.522;13.622;2023-08-07T02:33:26;5.10;;;2.45;;
78143;SDS011;67394;52.522;13.622;2023-08-07T02:35:53;4.57;;;2.40;;
78143;SDS011;67394;52.522;13.622;2023-08-07T02:38:21;3.10;;;2.55;;
78143;SDS011;67394;52.522;13.622;2023-08-07T02:40:48;3.90;;;2.22;;
78143;SDS011;67394;52.522;13.622;2023-08-07T02:43:14;4.93;;;2.45;;
78143;SDS011;67394;52.522;13.622;2023-08-07T02:45:41;4.75;;;2.90;;
78143;SDS011;67394;52.522;13.622;2023-08-07T02:48:08;4.75;;;3.05;;
78143;SDS011;67394;52.522;13.622;2023-08-07T02:50:35;4.55;;;2.70;;
78143;SDS011;67394;52.522;13.622;2023-08-07T02:53:01;4.45;;;2.30;;
78143;SDS011;67394;52.522;13.622;2023-08-07T02:55:30;4.15;;;2.65;;
78143;SDS011;67394;52.522;13.622;2023-08-07T02:57:56;4.75;;;2.78;;
78143;SDS011;67394;52.522;13.622;2023-08-07T03:00:23;4.30;;;2.97;;
78143;SDS011;67394;52.522;13.622;2023-08-07T03:02:50;6.00;;;3.30;;
78143;SDS011;67394;52.522;13.622;2023-08-07T03:05:17;4.75;;;3.33;;
78143;SDS011;67394;52.522;13.622;2023-08-07T03:07:44;5.32;;;3.03;;
78143;SDS011;67394;52.522;13.622;2023-08-07T03:10:11;8.07;;;3.40;;
78143;SDS011;67394;52.522;13.622;2023-08-07T03:12:38;5.10;;;3.25;;
78143;SDS011;67394;52.522;13.622;2023-08-07T03:15:05;4.20;;;2.80;;
78143;SDS011;67394;52.522;13.622;2023-08-07T03:17:32;5.90;;;3.25;;
78143;SDS011;67394;52.522;13.622;2023-08-07T03:19:59;6.45;;;3.70;;
78143;SDS011;67394;52.522;13.622;2023-08-07T03:22:26;4.32;;;2.80;;
78143;SDS011;67394;52.522;13.622;2023-08-07T03:24:53;6.25;;;3.15;;
78143;SDS011;67394;52.522;13.622;2023-08-07T03:27:20;5.47;;;3.10;;
78143;SDS011;67394;52.522;13.622;2023-08-07T03:29:47;8.50;;;3.22;;
78143;SDS011;67394;52.522;13.622;2023-08-07T03:32:14;5.25;;;3.05;;
78143;SDS011;67394;52.522;13.622;2023-08-07T03:34:41;5.45;;;2.58;;
78143;SDS011;67394;52.522;13.622;2023-08-07T03:37:09;6.25;;;3.03;;
78143;SDS011;67394;52.522;13.622;2023-08-07T03:39:36;5.57;;;2.90;;
78143;SDS011;67394;52.522;13.622;2023-08-07T03:42:02;4.18;;;2.83;;
78143;SDS011;67394;52.522;13.622;2023-08-07T03:44:29;5.45;;;3.17;;
78143;SDS011;67394;52.522;13.622;2023-08-07T03:46:56;5.07;;;3.22;;
78143;SDS011;67394;52.522;13.622;2023-08-07T03:49:24;3.67;;;2.95;;
78143;SDS011;67394;52.522;13.622;2023-08-07T03:51:51;5.45;;;3.20;;
78143;SDS011;67394;52.522;13.622;2023-08-07T03:54:17;6.53;;;3.90;;
78143;SDS011;67394;52.522;13.622;2023-08-07T03:56:46;5.95;;;2.65;;
78143;SDS011;67394;52.522;13.622;2023-08-07T03:59:12;6.25;;;3.58;;
78143;SDS011;67394;52.522;13.622;2023-08-07T04:01:39;5.70;;;3.50;;
78143;SDS011;67394;52.522;13.622;2023-08-07T04:04:06;5.45;;;3.40;;
78143;SDS011;67394;52.522;13.622;2023-08-07T04:06:33;5.35;;;3.35;;
78143;SDS011;67394;52.522;13.622;2023-08-07T04:08:59;4.45;;;3.30;;
78143;SDS011;67394;52.522;13.622;2023-08-07T04:11:26;4.88;;;3.10;;
78143;SDS011;67394;52.522;13.622;2023-08-07T04:13:53;4.65;;;2.92;;
78143;SDS011;67394;52.522;13.622;2023-08-07T04:16:19;5.60;;;3.88;;
78143;SDS011;67394;52.522;13.622;2023-08-07T04:18:46;8.23;;;3.30;;
78143;SDS011;67394;52.522;13.622;2023-08-07T04:21:13;9.23;;;3.83;;
78143;SDS011;67394;52.522;13.622;2023-08-07T04:23:39;7.35;;;4.00;;
78143;SDS011;67394;52.522;13.622;2023-08-07T04:26:08;5.47;;;3.40;;
78143;SDS011;67394;52.522;13.622;2023-08-07T04:28:35;5.25;;;3.58;;
78143;SDS011;67394;52.522;13.622;2023-08-07T04:31:01;8.68;;;3.53;;
78143;SDS011;67394;52.522;13.622;2023-08-07T04:33:28;5.13;;;3.33;;
78143;SDS011;67394;52.522;13.622;2023-08-07T04:35:54;4.18;;;2.92;;
78143;SDS011;67394;52.522;13.622;2023-08-07T04:38:21;5.93;;;3.50;;
78143;SDS011;67394;52.522;13.622;2023-08-07T04:40:48;8.65;;;3.70;;
78143;SDS011;67394;52.522;13.622;2023-08-07T04:43:16;6.30;;;3.55;;
78143;SDS011;67394;52.522;13.622;2023-08-07T04:45:43;5.30;;;3.13;;
78143;SDS011;67394;52.522;13.622;2023-08-07T04:48:10;6.75;;;3.60;;
78143;SDS011;67394;52.522;13.622;2023-08-07T04:50:37;5.30;;;3.50;;
78143;SDS011;67394;52.522;13.622;2023-08-07T04:53:04;4.22;;;2.60;;
78143;SDS011;67394;52.522;13.622;2023-08-07T04:55:31;3.80;;;2.65;;
78143;SDS011;67394;52.522;13.622;2023-08-07T04:57:58;7.07;;;3.53;;
78143;SDS011;67394;52.522;13.622;2023-08-07T05:00:25;4.80;;;3.15;;
78143;SDS011;67394;52.522;13.622;2023-08-07T05:02:51;7.28;;;3.20;;
78143;SDS011;67394;52.522;13.622;2023-08-07T05:05:18;4.20;;;2.90;;
78143;SDS011;67394;52.522;13.622;2023-08-07T05:07:44;5.78;;;3.08;;
78143;SDS011;67394;52.522;13.622;2023-08-07T05:10:11;7.25;;;2.88;;
78143;SDS011;67394;52.522;13.622;2023-08-07T05:12:37;4.35;;;2.80;;
78143;SDS011;67394;52.522;13.622;2023-08-07T05:15:04;6.47;;;3.50;;
78143;SDS011;67394;52.522;13.622;2023-08-07T05:17:31;4.65;;;2.83;;
78143;SDS011;67394;52.522;13.622;2023-08-07T05:19:58;5.70;;;3.22;;
78143;SDS011;67394;52.522;13.622;2023-08-07T05:22:25;5.07;;;2.90;;
78143;SDS011;67394;52.522;13.622;2023-08-07T05:24:51;4.18;;;2.45;;
78143;SDS011;67394;52.522;13.622;2023-08-07T05:27:18;4.28;;;2.60;;
78143;SDS011;67394;52.522;13.622;2023-08-07T05:29:44;3.95;;;2.72;;
78143;SDS011;67394;52.522;13.622;2023-08-07T05:34:38;4.18;;;2.55;;
78143;SDS011;67394;52.522;13.622;2023-08-07T05:39:32;4.93;;;2.60;;
78143;SDS011;67394;52.522;13.622;2023-08-07T05:41:59;4.60;;;2.60;;
78143;SDS011;67394;52.522;13.622;2023-08-07T05:44:25;4.30;;;3.03;;
78143;SDS011;67394;52.522;13.622;2023-08-07T05:46:52;4.45;;;2.60;;
78143;SDS011;67394;52.522;13.622;2023-08-07T05:49:19;3.95;;;2.70;;
78143;SDS011;67394;52.522;13.622;2023-08-07T05:51:48;4.55;;;2.75;;
78143;SDS011;67394;52.522;13.622;2023-08-07T05:54:14;3.92;;;2.33;;
78143;SDS011;67394;52.522;13.622;2023-08-07T05:56:41;4.90;;;2.60;;
78143;SDS011;67394;52.522;13.622;2023-08-07T05:59:09;3.67;;;2.40;;
78143;SDS011;67394;52.522;13.622;2023-08-07T06:01:35;4.60;;;2.50;;
78143;SDS011;67394;52.522;13.622;2023-08-07T06:04:02;4.93;;;2.65;;
78143;SDS011;67394;52.522;13.622;2023-08-07T06:08:55;3.88;;;2.28;;
78143;SDS011;67394;52.522;13.622;2023-08-07T06:11:26;3.58;;;2.47;;
78143;SDS011;67394;52.522;13.622;2023-08-07T06:13:52;3.28;;;2.63;;
78143;SDS011;67394;52.522;13.622;2023-08-07T06:16:19;3.63;;;2.30;;
78143;SDS011;67394;52.522;13.622;2023-08-07T06:18:45;3.28;;;2.33;;
78143;SDS011;67394;52.522;13.622;2023-08-07T06:21:12;3.70;;;2.20;;
78143;SDS011;67394;52.522;13.622;2023-08-07T06:23:38;3.53;;;2.33;;
78143;SDS011;67394;52.522;13.622;2023-08-07T06:26:05;4.18;;;2.42;;
78143;SDS011;67394;52.522;13.622;2023-08-07T06:28:34;3.53;;;2.50;;
78143;SDS011;67394;52.522;13.622;2023-08-07T06:31:01;3.50;;;2.25;;
78143;SDS011;67394;52.522;13.622;2023-08-07T06:33:32;3.70;;;2.35;;
78143;SDS011;67394;52.522;13.622;2023-08-07T06:35:59;3.22;;;2.33;;
78143;SDS011;67394;52.522;13.622;2023-08-07T06:38:26;3.90;;;2.30;;
78143;SDS011;67394;52.522;13.622;2023-08-07T06:40:53;3.10;;;2.15;;
78143;SDS011;67394;52.522;13.622;2023-08-07T06:43:20;4.70;;;2.40;;
78143;SDS011;67394;52.522;13.622;2023-08-07T06:45:47;2.75;;;1.95;;
78143;SDS011;67394;52.522;13.622;2023-08-07T06:48:17;4.55;;;2.20;;
78143;SDS011;67394;52.522;13.622;2023-08-07T06:50:44;3.17;;;2.25;;
78143;SDS011;67394;52.522;13.622;2023-08-07T06:53:12;3.53;;;2.95;;
78143;SDS011;67394;52.522;13.622;2023-08-07T06:55:38;4.07;;;2.60;;
78143;SDS011;67394;52.522;13.622;2023-08-07T06:58:07;3.50;;;2.00;;
78143;SDS011;67394;52.522;13.622;2023-08-07T07:00:34;3.05;;;1.90;;
78143;SDS011;67394;52.522;13.622;2023-08-07T07:03:01;5.05;;;2.00;;
78143;SDS011;67394;52.522;13.622;2023-08-07T07:05:28;3.75;;;2.35;;
78143;SDS011;67394;52.522;13.622;2023-08-07T07:07:55;3.33;;;1.80;;
78143;SDS011;67394;52.522;13.622;2023-08-07T07:12:49;3.05;;;1.80;;
78143;SDS011;67394;52.522;13.622;2023-08-07T07:15:15;2.35;;;1.70;;
78143;SDS011;67394;52.522;13.622;2023-08-07T07:17:42;2.10;;;1.70;;
78143;SDS011;67394;52.522;13.622;2023-08-07T07:20:09;3.20;;;2.05;;
78143;SDS011;67394;52.522;13.622;2023-08-07T07:22:36;5.75;;;1.90;;
78143;SDS011;67394;52.522;13.622;2023-08-07T07:25:03;3.13;;;1.70;;
78143;SDS011;67394;52.522;13.622;2023-08-07T07:27:30;3.40;;;2.15;;
78143;SDS011;67394;52.522;13.622;2023-08-07T07:29:56;3.78;;;2.03;;
78143;SDS011;67394;52.522;13.622;2023-08-07T07:32:23;3.90;;;1.60;;
78143;SDS011;67394;52.522;13.622;2023-08-07T07:34:49;3.03;;;1.70;;
78143;SDS011;67394;52.522;13.622;2023-08-07T07:37:16;2.60;;;1.52;;
78143;SDS011;67394;52.522;13.622;2023-08-07T07:39:42;2.30;;;1.60;;
78143;SDS011;67394;52.522;13.622;2023-08-07T07:42:09;2.45;;;1.60;;
78143;SDS011;67394;52.522;13.622;2023-08-07T07:44:36;2.05;;;1.50;;
78143;SDS011;67394;52.522;13.622;2023-08-07T07:47:02;2.25;;;1.60;;
78143;SDS011;67394;52.522;13.622;2023-08-07T07:49:29;3.83;;;1.80;;
78143;SDS011;67394;52.522;13.622;2023-08-07T07:51:55;2.85;;;1.83;;
78143;SDS011;67394;52.522;13.622;2023-08-07T07:54:21;1.80;;;1.50;;
78143;SDS011;67394;52.522;13.622;2023-08-07T07:56:48;4.07;;;1.70;;
78143;SDS011;67394;52.522;13.622;2023-08-07T07:59:14;2.15;;;1.55;;
78143;SDS011;67394;52.522;13.622;2023-08-07T08:04:08;3.17;;;1.60;;
78143;SDS011;67394;52.522;13.622;2023-08-07T08:06:36;4.57;;;1.70;;
78143;SDS011;67394;52.522;13.622;2023-08-07T08:09:02;2.83;;;1.70;;
78143;SDS011;67394;52.522;13.622;2023-08-07T08:13:56;4.18;;;1.73;;
78143;SDS011;67394;52.522;13.622;2023-08-07T08:16:22;2.75;;;1.70;;
78143;SDS011;67394;52.522;13.622;2023-08-07T08:18:49;4.38;;;1.90;;
78143;SDS011;67394;52.522;13.622;2023-08-07T08:21:15;2.40;;;1.83;;
78143;SDS011;67394;52.522;13.622;2023-08-07T08:23:42;3.55;;;1.55;;
78143;SDS011;67394;52.522;13.622;2023-08-07T08:26:08;2.92;;;1.83;;
78143;SDS011;67394;52.522;13.622;2023-08-07T08:28:35;2.10;;;1.60;;
78143;SDS011;67394;52.522;13.622;2023-08-07T08:31:01;3.13;;;1.98;;
78143;SDS011;67394;52.522;13.622;2023-08-07T08:33:28;2.55;;;1.60;;
78143;SDS011;67394;52.522;13.622;2023-08-07T08:35:55;1.88;;;1.45;;
78143;SDS011;67394;52.522;13.622;2023-08-07T08:38:21;2.45;;;1.77;;
78143;SDS011;67394;52.522;13.622;2023-08-07T08:40:48;2.83;;;1.90;;
78143;SDS011;67394;52.522;13.622;2023-08-07T08:43:18;3.05;;;1.83;;
78143;SDS011;67394;52.522;13.622;2023-08-07T08:45:45;4.93;;;1.90;;
78143;SDS011;67394;52.522;13.622;2023-08-07T08:48:13;3.90;;;2.00;;
78143;SDS011;67394;52.522;13.622;2023-08-07T08:50:45;3.88;;;1.85;;
78143;SDS011;67394;52.522;13.622;2023-08-07T08:53:12;2.90;;;1.70;;
78143;SDS011;67394;52.522;13.622;2023-08-07T08:55:39;3.60;;;2.10;;
78143;SDS011;67394;52.522;13.622;2023-08-07T08:58:06;2.30;;;1.60;;
78143;SDS011;67394;52.522;13.622;2023-08-07T09:00:33;2.80;;;1.95;;
78143;SDS011;67394;52.522;13.622;2023-08-07T09:03:00;2.75;;;1.90;;
78143;SDS011;67394;52.522;13.622;2023-08-07T09:07:54;4.20;;;1.98;;
78143;SDS011;67394;52.522;13.622;2023-08-07T09:10:22;5.82;;;2.28;;
78143;SDS011;67394;52.522;13.622;2023-08-07T09:12:54;5.28;;;2.30;;
78143;SDS011;67394;52.522;13.622;2023-08-07T09:15:27;3.50;;;1.77;;
78143;SDS011;67394;52.522;13.622;2023-08-07T09:17:55;2.70;;;1.80;;
78143;SDS011;67394;52.522;13.622;2023-08-07T09:20:25;3.00;;;1.70;;
78143;SDS011;67394;52.522;13.622;2023-08-07T09:25:28;3.78;;;1.70;;
78143;SDS011;67394;52.522;13.622;2023-08-07T09:27:56;3.53;;;1.75;;
78143;SDS011;67394;52.522;13.622;2023-08-07T09:30:26;4.00;;;1.70;;
78143;SDS011;67394;52.522;13.622;2023-08-07T09:33:01;2.95;;;1.67;;
78143;SDS011;67394;52.522;13.622;2023-08-07T09:35:30;2.42;;;1.60;;
78143;SDS011;67394;52.522;13.622;2023-08-07T09:37:57;2.38;;;1.52;;
78143;SDS011;67394;52.522;13.622;2023-08-07T09:40:24;2.17;;;1.70;;
78143;SDS011;67394;52.522;13.622;2023-08-07T09:42:51;3.60;;;2.15;;
78143;SDS011;67394;52.522;13.622;2023-08-07T09:47:47;3.92;;;1.80;;
78143;SDS011;67394;52.522;13.622;2023-08-07T09:50:22;2.90;;;1.60;;
78143;SDS011;67394;52.522;13.622;2023-08-07T09:52:49;3.58;;;1.92;;
78143;SDS011;67394;52.522;13.622;2023-08-07T09:55:15;3.75;;;2.45;;
78143;SDS011;67394;52.522;13.622;2023-08-07T09:57:43;2.90;;;1.80;;
78143;SDS011;67394;52.522;13.622;2023-08-07T10:00:10;1.80;;;1.40;;
78143;SDS011;67394;52.522;13.622;2023-08-07T10:02:38;3.83;;;1.75;;
78143;SDS011;67394;52.522;13.622;2023-08-07T10:05:06;4.20;;;1.75;;
78143;SDS011;67394;52.522;13.622;2023-08-07T10:07:32;3.05;;;1.80;;
78143;SDS011;67394;52.522;13.622;2023-08-07T10:09:59;2.80;;;1.73;;
78143;SDS011;67394;52.522;13.622;2023-08-07T10:12:26;2.20;;;1.58;;
78143;SDS011;67394;52.522;13.622;2023-08-07T10:14:53;2.28;;;1.50;;
78143;SDS011;67394;52.522;13.622;2023-08-07T10:19:50;3.10;;;1.73;;
78143;SDS011;67394;52.522;13.622;2023-08-07T10:22:20;3.90;;;1.85;;
78143;SDS011;67394;52.522;13.622;2023-08-07T10:24:51;4.53;;;1.67;;
78143;SDS011;67394;52.522;13.622;2023-08-07T10:27:20;3.58;;;1.67;;
78143;SDS011;67394;52.522;13.622;2023-08-07T10:29:51;3.85;;;1.60;;
78143;SDS011;67394;52.522;13.622;2023-08-07T10:32:20;2.10;;;1.58;;
78143;SDS011;67394;52.522;13.622;2023-08-07T10:34:50;3.15;;;1.50;;
78143;SDS011;67394;52.522;13.622;2023-08-07T10:40:05;3.50;;;1.50;;
78143;SDS011;67394;52.522;13.622;2023-08-07T10:42:49;3.00;;;1.60;;
78143;SDS011;67394;52.522;13.622;2023-08-07T10:45:17;3.17;;;1.70;;
78143;SDS011;67394;52.522;13.622;2023-08-07T10:47:44;2.10;;;1.40;;
78143;SDS011;67394;52.522;13.622;2023-08-07T10:52:56;2.40;;;1.20;;
78143;SDS011;67394;52.522;13.622;2023-08-07T10:55:23;2.00;;;1.40;;
78143;SDS011;67394;52.522;13.622;2023-08-07T10:57:49;2.53;;;1.20;;
78143;SDS011;67394;52.522;13.622;2023-08-07T11:00:16;2.95;;;1.52;;
78143;SDS011;67394;52.522;13.622;2023-08-07T11:02:43;2.08;;;1.40;;
78143;SDS011;67394;52.522;13.622;2023-08-07T11:05:14;2.92;;;1.30;;
78143;SDS011;67394;52.522;13.622;2023-08-07T11:10:07;1.70;;;1.23;;
78143;SDS011;67394;52.522;13.622;2023-08-07T11:12:34;2.33;;;1.52;;
78143;SDS011;67394;52.522;13.622;2023-08-07T11:15:00;2.28;;;1.40;;
78143;SDS011;67394;52.522;13.622;2023-08-07T11:17:27;2.97;;;1.70;;
78143;SDS011;67394;52.522;13.622;2023-08-07T11:19:55;9.88;;;2.15;;
78143;SDS011;67394;52.522;13.622;2023-08-07T11:22:22;2.97;;;1.70;;
78143;SDS011;67394;52.522;13.622;2023-08-07T11:24:49;2.85;;;1.65;;
78143;SDS011;67394;52.522;13.622;2023-08-07T11:27:17;3.08;;;1.83;;
78143;SDS011;67394;52.522;13.622;2023-08-07T11:29:49;1.50;;;0.95;;
78143;SDS011;67394;52.522;13.622;2023-08-07T11:32:16;2.78;;;1.52;;
78143;SDS011;67394;52.522;13.622;2023-08-07T11:34:48;4.20;;;1.40;;
78143;SDS011;67394;52.522;13.622;2023-08-07T11:37:15;4.13;;;1.50;;
78143;SDS011;67394;52.522;13.622;2023-08-07T11:39:42;2.65;;;1.50;;
78143;SDS011;67394;52.522;13.622;2023-08-07T11:42:10;3.92;;;1.70;;
78143;SDS011;67394;52.522;13.622;2023-08-07T11:44:36;2.42;;;1.60;;
78143;SDS011;67394;52.522;13.622;2023-08-07T11:47:03;4.00;;;1.70;;
78143;SDS011;67394;52.522;13.622;2023-08-07T11:49:30;2.70;;;1.50;;
78143;SDS011;67394;52.522;13.622;2023-08-07T11:51:56;2.38;;;1.73;;
78143;SDS011;67394;52.522;13.622;2023-08-07T11:54:23;2.40;;;1.60;;
78143;SDS011;67394;52.522;13.622;2023-08-07T11:56:50;3.15;;;1.42;;
78143;SDS011;67394;52.522;13.622;2023-08-07T11:59:16;1.92;;;1.20;;
78143;SDS011;67394;52.522;13.622;2023-08-07T12:01:43;2.17;;;1.50;;
78143;SDS011;67394;52.522;13.622;2023-08-07T12:04:11;2.22;;;1.67;;
78143;SDS011;67394;52.522;13.622;2023-08-07T12:06:38;3.70;;;1.77;;
78143;SDS011;67394;52.522;13.622;2023-08-07T12:09:18;3.17;;;1.77;;
78143;SDS011;67394;52.522;13.622;2023-08-07T12:11:45;2.42;;;1.67;;
78143;SDS011;67394;52.522;13.622;2023-08-07T12:14:16;2.75;;;1.70;;
78143;SDS011;67394;52.522;13.622;2023-08-07T12:16:46;3.78;;;1.80;;
78143;SDS011;67394;52.522;13.622;2023-08-07T12:19:13;3.13;;;1.70;;
78143;SDS011;67394;52.522;13.622;2023-08-07T12:21:40;2.40;;;1.77;;
78143;SDS011;67394;52.522;13.622;2023-08-07T12:24:06;3.42;;;2.22;;
78143;SDS011;67394;52.522;13.622;2023-08-07T12:26:33;1.98;;;1.52;;
78143;SDS011;67394;52.522;13.622;2023-08-07T12:28:59;3.85;;;1.90;;
78143;SDS011;67394;52.522;13.622;2023-08-07T12:31:26;2.80;;;1.67;;
78143;SDS011;67394;52.522;13.622;2023-08-07T12:33:52;4.63;;;1.88;;
78143;SDS011;67394;52.522;13.622;2023-08-07T12:36:20;3.50;;;1.42;;
78143;SDS011;67394;52.522;13.622;2023-08-07T12:38:47;3.55;;;1.70;;
78143;SDS011;67394;52.522;13.622;2023-08-07T12:41:13;3.20;;;1.60;;
78143;SDS011;67394;52.522;13.622;2023-08-07T12:43:43;3.97;;;2.20;;
78143;SDS011;67394;52.522;13.622;2023-08-07T12:46:10;4.18;;;1.83;;
78143;SDS011;67394;52.522;13.622;2023-08-07T12:48:39;2.83;;;1.25;;
78143;SDS011;67394;52.522;13.622;2023-08-07T12:51:05;3.40;;;1.52;;
78143;SDS011;67394;52.522;13.622;2023-08-07T12:53:32;3.67;;;1.67;;
78143;SDS011;67394;52.522;13.622;2023-08-07T12:55:58;3.30;;;1.70;;
78143;SDS011;67394;52.522;13.622;2023-08-07T12:58:25;3.55;;;2.47;;
78143;SDS011;67394;52.522;13.622;2023-08-07T13:00:51;3.65;;;1.70;;
78143;SDS011;67394;52.522;13.622;2023-08-07T13:03:18;3.88;;;1.80;;
78143;SDS011;67394;52.522;13.622;2023-08-07T13:05:45;3.92;;;1.55;;
78143;SDS011;67394;52.522;13.622;2023-08-07T13:08:11;3.08;;;1.48;;
78143;SDS011;67394;52.522;13.622;2023-08-07T13:10:38;2.85;;;1.27;;
78143;SDS011;67394;52.522;13.622;2023-08-07T13:13:05;3.70;;;1.55;;
78143;SDS011;67394;52.522;13.622;2023-08-07T13:15:31;4.53;;;1.63;;
78143;SDS011;67394;52.522;13.622;2023-08-07T13:17:57;2.30;;;1.73;;
78143;SDS011;67394;52.522;13.622;2023-08-07T13:20:24;5.32;;;1.90;;
78143;SDS011;67394;52.522;13.622;2023-08-07T13:22:51;2.65;;;1.30;;
78143;SDS011;67394;52.522;13.622;2023-08-07T13:25:17;2.55;;;1.33;;
78143;SDS011;67394;52.522;13.622;2023-08-07T13:27:43;3.70;;;1.33;;
78143;SDS011;67394;52.522;13.622;2023-08-07T13:30:10;3.47;;;1.70;;
78143;SDS011;67394;52.522;13.622;2023-08-07T13:32:37;2.38;;;1.65;;
78143;SDS011;67394;52.522;13.622;2023-08-07T13:35:04;3.42;;;1.60;;
78143;SDS011;67394;52.522;13.622;2023-08-07T13:37:31;3.33;;;1.30;;
78143;SDS011;67394;52.522;13.622;2023-08-07T13:39:57;3.63;;;1.45;;
78143;SDS011;67394;52.522;13.622;2023-08-07T13:42:24;5.72;;;1.67;;
78143;SDS011;67394;52.522;13.622;2023-08-07T13:44:51;2.72;;;1.63;;
78143;SDS011;67394;52.522;13.622;2023-08-07T13:47:18;3.22;;;1.63;;
78143;SDS011;67394;52.522;13.622;2023-08-07T13:49:44;2.17;;;1.10;;
78143;SDS011;67394;52.522;13.622;2023-08-07T13:52:11;4.72;;;1.55;;
78143;SDS011;67394;52.522;13.622;2023-08-07T13:54:37;2.63;;;1.40;;
78143;SDS011;67394;52.522;13.622;2023-08-07T13:57:04;2.58;;;1.35;;
78143;SDS011;67394;52.522;13.622;2023-08-07T13:59:31;5.13;;;1.70;;
78143;SDS011;67394;52.522;13.622;2023-08-07T14:01:57;5.20;;;1.60;;
78143;SDS011;67394;52.522;13.622;2023-08-07T14:04:24;2.45;;;1.42;;
78143;SDS011;67394;52.522;13.622;2023-08-07T14:09:17;4.13;;;1.75;;
78143;SDS011;67394;52.522;13.622;2023-08-07T14:11:44;2.90;;;1.73;;
78143;SDS011;67394;52.522;13.622;2023-08-07T14:14:10;3.90;;;1.60;;
78143;SDS011;67394;52.522;13.622;2023-08-07T14:16:36;6.38;;;1.92;;
78143;SDS011;67394;52.522;13.622;2023-08-07T14:19:05;4.38;;;1.63;;
78143;SDS011;67394;52.522;13.622;2023-08-07T14:21:32;4.18;;;2.15;;
78143;SDS011;67394;52.522;13.622;2023-08-07T14:23:58;3.10;;;1.50;;
78143;SDS011;67394;52.522;13.622;2023-08-07T14:26:25;6.22;;;1.80;;
78143;SDS011;67394;52.522;13.622;2023-08-07T14:28:52;2.97;;;1.63;;
78143;SDS011;67394;52.522;13.622;2023-08-07T14:31:18;2.58;;;1.40;;
78143;SDS011;67394;52.522;13.622;2023-08-07T14:33:45;2.25;;;1.67;;
78143;SDS011;67394;52.522;13.622;2023-08-07T14:36:12;5.95;;;1.65;;
78143;SDS011;67394;52.522;13.622;2023-08-07T14:38:38;4.03;;;1.40;;
78143;SDS011;67394;52.522;13.622;2023-08-07T14:41:05;3.53;;;1.13;;
78143;SDS011;67394;52.522;13.622;2023-08-07T14:43:31;3.58;;;1.50;;
78143;SDS011;67394;52.522;13.622;2023-08-07T14:48:24;2.50;;;1.25;;
78143;SDS011;67394;52.522;13.622;2023-08-07T14:53:17;2.05;;;1.27;;
78143;SDS011;67394;52.522;13.622;2023-08-07T14:55:44;3.90;;;1.55;;
78143;SDS011;67394;52.522;13.622;2023-08-07T14:58:11;3.35;;;1.65;;
78143;SDS011;67394;52.522;13.622;2023-08-07T15:00:38;3.00;;;1.42;;
78143;SDS011;67394;52.522;13.622;2023-08-07T15:03:05;4.88;;;1.58;;
78143;SDS011;67394;52.522;13.622;2023-08-07T15:05:31;3.75;;;1.60;;
78143;SDS011;67394;52.522;13.622;2023-08-07T15:07:59;5.30;;;1.80;;
78143;SDS011;67394;52.522;13.622;2023-08-07T15:10:26;3.58;;;1.52;;
78143;SDS011;67394;52.522;13.622;2023-08-07T15:15:19;4.15;;;1.60;;
78143;SDS011;67394;52.522;13.622;2023-08-07T15:17:46;8.32;;;1.98;;
78143;SDS011;67394;52.522;13.622;2023-08-07T15:22:39;3.95;;;1.60;;
78143;SDS011;67394;52.522;13.622;2023-08-07T15:25:05;4.25;;;1.65;;
78143;SDS011;67394;52.522;13.622;2023-08-07T15:27:33;4.22;;;1.52;;